Weather Data

Pearl Creek Farm: 8878 N Farm Road 75, Walnut Grove MO 65770

<== Previous Day (Monday 17 Apr 2017) | Next Day (Wednesday 19 Apr 2017) ==>

Summary Precipitation Data For Tuesday 18 April 2017

ElementValueUnits
PrecipitationT
NotesGauge is empty but I can feel a drop of mist on my face occasionally.
SourcePearl Creek Farm

Summary Temperature Data For Tuesday 18 April 2017

ElementValueUnits
High Temperature78 oF
Low Temperature57 oF
Average Temperature66 oF
High Humidity97 %
Low Humidity52 %
Average Humidity78 %
SourceSpringfield-Branson National Airport (SGF)

Detail Temperature Data For Tuesday 18 April 2017

Date / TimeTemp (F)RH (%)Dew Pt (F)Report Date / TimeSource
2017-04-18 05:52:00 58 97 57.0 2017-12-29 17:00:26.17417 Springfield-Branson National Airport (SGF)
2017-04-18 00:52:00 59 90 56.0 2017-12-29 17:00:26.17417 Springfield-Branson National Airport (SGF)
2017-04-18 01:52:00 58 90 55.0 2017-12-29 17:00:26.17417 Springfield-Branson National Airport (SGF)
2017-04-18 02:52:00 57 90 54.0 2017-12-29 17:00:26.17417 Springfield-Branson National Airport (SGF)
2017-04-18 03:52:00 58 93 56.0 2017-12-29 17:00:26.17417 Springfield-Branson National Airport (SGF)
2017-04-18 04:52:00 58 97 57.0 2017-12-29 17:00:26.17417 Springfield-Branson National Airport (SGF)
2017-04-18 06:52:00 59 93 57.0 2017-12-29 17:00:26.17417 Springfield-Branson National Airport (SGF)
2017-04-18 07:52:00 60 93 58.0 2017-12-29 17:00:26.17417 Springfield-Branson National Airport (SGF)
2017-04-18 08:52:00 62 86 58.0 2017-12-29 17:00:26.17417 Springfield-Branson National Airport (SGF)
2017-04-18 09:52:00 63 87 59.0 2017-12-29 17:00:26.17417 Springfield-Branson National Airport (SGF)
2017-04-18 10:52:00 65 81 59.0 2017-12-29 17:00:26.17417 Springfield-Branson National Airport (SGF)
2017-04-18 11:52:00 67 79 60.0 2017-12-29 17:00:26.17417 Springfield-Branson National Airport (SGF)
2017-04-18 12:52:00 71 71 61.0 2017-12-29 17:00:26.17417 Springfield-Branson National Airport (SGF)
2017-04-18 13:52:00 74 64 61.0 2017-12-29 17:00:26.17417 Springfield-Branson National Airport (SGF)
2017-04-18 14:52:00 77 56 60.0 2017-12-29 17:00:26.17417 Springfield-Branson National Airport (SGF)
2017-04-18 15:52:00 77 54 59.0 2017-12-29 17:00:26.17417 Springfield-Branson National Airport (SGF)
2017-04-18 16:52:00 78 52 59.0 2017-12-29 17:00:26.17417 Springfield-Branson National Airport (SGF)
2017-04-18 17:52:00 76 56 59.0 2017-12-29 17:00:26.17417 Springfield-Branson National Airport (SGF)
2017-04-18 18:52:00 70 68 59.0 2017-12-29 17:00:26.17417 Springfield-Branson National Airport (SGF)
2017-04-18 19:52:00 68 65 56.0 2017-12-29 17:00:26.17417 Springfield-Branson National Airport (SGF)
2017-04-18 20:52:00 68 68 57.0 2017-12-29 17:00:26.17417 Springfield-Branson National Airport (SGF)
2017-04-18 21:52:00 66 78 59.0 2017-12-29 17:00:26.17417 Springfield-Branson National Airport (SGF)
2017-04-18 22:52:00 65 84 60.0 2017-12-29 17:00:26.17417 Springfield-Branson National Airport (SGF)
2017-04-18 23:52:00 65 84 60.0 2017-12-29 17:00:26.17417 Springfield-Branson National Airport (SGF)

A total of 24 rows are displayed.